createdAt,value
2023-02-11T00:01:32.831Z,1.70
2023-02-11T00:04:01.091Z,1.70
2023-02-11T00:06:30.797Z,1.70
2023-02-11T00:08:58.755Z,1.60
2023-02-11T00:11:31.254Z,1.60
2023-02-11T00:14:01.236Z,1.50
2023-02-11T00:16:29.894Z,1.50
2023-02-11T00:18:59.468Z,1.50
2023-02-11T00:21:27.691Z,1.40
2023-02-11T00:23:57.383Z,1.40
2023-02-11T00:26:28.884Z,1.40
2023-02-11T00:28:57.415Z,1.40
2023-02-11T00:31:26.714Z,1.40
2023-02-11T00:33:55.366Z,1.30
2023-02-11T00:36:29.174Z,1.30
2023-02-11T00:38:58.350Z,1.30
2023-02-11T00:41:26.649Z,1.30
2023-02-11T00:43:54.376Z,1.30
2023-02-11T00:46:23.141Z,1.30
2023-02-11T00:48:53.477Z,1.30
2023-02-11T00:51:22.481Z,1.30
2023-02-11T00:53:50.223Z,1.40
2023-02-11T00:56:18.180Z,1.30
2023-02-11T00:58:45.928Z,1.40
2023-02-11T01:01:14.355Z,1.40
2023-02-11T01:03:43.782Z,1.40
2023-02-11T01:06:12.121Z,1.40
2023-02-11T01:08:40.478Z,1.40
2023-02-11T01:11:15.748Z,1.40
2023-02-11T01:13:47.351Z,1.40
2023-02-11T01:16:17.596Z,1.40
2023-02-11T01:18:46.544Z,1.40
2023-02-11T01:21:15.170Z,1.40
2023-02-11T01:23:43.850Z,1.50
2023-02-11T01:26:13.606Z,1.50
2023-02-11T01:28:41.336Z,1.50
2023-02-11T01:31:09.470Z,1.50
2023-02-11T01:33:37.027Z,1.60
2023-02-11T01:36:08.457Z,1.60
2023-02-11T01:38:36.672Z,1.60
2023-02-11T01:41:08.898Z,1.60
2023-02-11T01:43:43.262Z,1.70
2023-02-11T01:46:49.781Z,1.70
2023-02-11T01:49:27.043Z,1.70
2023-02-11T01:52:12.460Z,1.80
2023-02-11T01:55:06.780Z,1.80
2023-02-11T01:57:37.307Z,1.80
2023-02-11T02:00:18.398Z,1.90
2023-02-11T02:03:05.893Z,1.90
2023-02-11T02:05:53.503Z,1.90
2023-02-11T02:08:42.563Z,1.90
2023-02-11T02:11:10.517Z,1.90
2023-02-11T02:13:38.648Z,1.90
2023-02-11T02:16:11.667Z,1.90
2023-02-11T02:19:00.692Z,1.90
2023-02-11T02:22:04.233Z,1.90
2023-02-11T02:25:09.699Z,2.00
2023-02-11T02:27:52.494Z,2.00
2023-02-11T02:30:23.193Z,2.00
2023-02-11T02:33:22.505Z,2.00
2023-02-11T02:36:13.661Z,2.00
2023-02-11T02:38:53.708Z,2.10
2023-02-11T02:41:32.764Z,2.10
2023-02-11T02:44:01.357Z,2.10
2023-02-11T02:46:32.890Z,2.10
2023-02-11T02:49:01.133Z,2.10
2023-02-11T02:51:40.934Z,2.10
2023-02-11T02:54:24.008Z,2.10
2023-02-11T02:56:56.802Z,2.10
2023-02-11T02:59:51.786Z,2.10
2023-02-11T03:02:42.656Z,2.10
2023-02-11T03:05:19.317Z,2.10
2023-02-11T03:08:00.540Z,2.10
2023-02-11T03:10:36.537Z,2.10
2023-02-11T03:13:06.216Z,2.10
2023-02-11T03:15:43.521Z,2.10
2023-02-11T03:18:15.913Z,2.10
2023-02-11T03:20:48.599Z,2.10
2023-02-11T03:23:25.046Z,2.10
2023-02-11T03:26:03.357Z,2.10
2023-02-11T03:28:40.340Z,2.20
2023-02-11T03:31:22.169Z,2.20
2023-02-11T03:34:16.450Z,2.20
2023-02-11T03:37:09.395Z,2.20
2023-02-11T03:39:43.178Z,2.20
2023-02-11T03:42:13.697Z,2.20
2023-02-11T03:44:48.109Z,2.20
2023-02-11T03:47:20.080Z,2.20
2023-02-11T03:49:51.711Z,2.20
2023-02-11T03:52:22.173Z,2.20
2023-02-11T03:54:54.214Z,2.20
2023-02-11T03:57:21.982Z,2.20
2023-02-11T03:59:52.011Z,2.20
2023-02-11T04:02:20.017Z,2.20
2023-02-11T04:04:48.399Z,2.20
2023-02-11T04:07:16.054Z,2.20
2023-02-11T04:09:44.075Z,2.20
2023-02-11T04:12:11.785Z,2.10
2023-02-11T04:14:39.746Z,2.20
2023-02-11T04:17:07.444Z,2.20
2023-02-11T04:19:35.666Z,2.30
2023-02-11T04:22:03.673Z,2.30
2023-02-11T04:24:31.788Z,2.30
2023-02-11T04:26:59.519Z,2.40
2023-02-11T04:29:28.559Z,2.40
2023-02-11T04:31:56.611Z,2.40
2023-02-11T04:34:25.302Z,2.40
2023-02-11T04:36:53.077Z,2.40
2023-02-11T04:39:21.051Z,2.40
2023-02-11T04:41:48.651Z,2.50
2023-02-11T04:44:16.663Z,2.50
2023-02-11T04:46:44.300Z,2.50
2023-02-11T04:49:16.616Z,2.50
2023-02-11T04:51:49.579Z,2.50
2023-02-11T04:54:19.197Z,2.50
2023-02-11T04:56:46.819Z,2.50
2023-02-11T04:59:14.980Z,2.50
2023-02-11T05:01:42.721Z,2.50
2023-02-11T05:04:10.778Z,2.50
2023-02-11T05:06:40.037Z,2.60
2023-02-11T05:09:08.276Z,2.50
2023-02-11T05:11:36.998Z,2.60
2023-02-11T05:14:05.524Z,2.60
2023-02-11T05:16:33.356Z,2.60
2023-02-11T05:19:01.548Z,2.70
2023-02-11T05:21:29.523Z,2.70
2023-02-11T05:23:57.517Z,2.70
2023-02-11T05:26:25.280Z,2.70
2023-02-11T05:28:53.420Z,2.70
2023-02-11T05:31:21.160Z,2.70
2023-02-11T05:33:49.225Z,2.70
2023-02-11T05:36:17.113Z,2.70
2023-02-11T05:38:45.019Z,2.70
2023-02-11T05:41:13.176Z,2.70
2023-02-11T05:43:41.245Z,2.60
2023-02-11T05:46:09.079Z,2.60
2023-02-11T05:48:37.019Z,2.50
2023-02-11T05:51:04.855Z,2.50
2023-02-11T05:53:32.967Z,2.50
2023-02-11T05:56:03.106Z,2.40
2023-02-11T05:58:31.112Z,2.40
2023-02-11T06:00:58.952Z,2.30
2023-02-11T06:03:26.956Z,2.20
2023-02-11T06:05:54.736Z,2.20
2023-02-11T06:08:22.633Z,2.10
2023-02-11T06:10:50.334Z,2.10
2023-02-11T06:13:19.898Z,2.10
2023-02-11T06:15:59.562Z,2.10
2023-02-11T06:18:27.787Z,2.10
2023-02-11T06:20:56.231Z,2.10
2023-02-11T06:23:24.272Z,2.10
2023-02-11T06:25:53.534Z,2.10
2023-02-11T06:28:21.899Z,2.10
2023-02-11T06:30:49.602Z,2.00
2023-02-11T06:33:17.632Z,2.00
2023-02-11T06:35:45.249Z,2.00
2023-02-11T06:38:13.345Z,2.00
2023-02-11T06:40:41.290Z,2.00
2023-02-11T06:43:09.214Z,1.90
2023-02-11T06:45:36.947Z,1.90
2023-02-11T06:48:04.875Z,1.80
2023-02-11T06:50:32.485Z,1.90
2023-02-11T06:53:00.853Z,1.80
2023-02-11T06:55:28.460Z,1.80
2023-02-11T06:57:56.381Z,1.80
2023-02-11T07:00:24.059Z,1.90
2023-02-11T07:02:52.133Z,1.90
2023-02-11T07:05:19.855Z,1.90
2023-02-11T07:07:48.010Z,2.00
2023-02-11T07:10:15.671Z,2.00
2023-02-11T07:12:43.669Z,2.10
2023-02-11T07:15:11.574Z,2.10
2023-02-11T07:17:39.509Z,2.10
2023-02-11T07:20:07.436Z,2.20
2023-02-11T07:22:35.558Z,2.30
2023-02-11T07:25:04.595Z,2.30
2023-02-11T07:27:32.311Z,2.40
2023-02-11T07:30:00.388Z,2.40
2023-02-11T07:32:28.980Z,2.40
2023-02-11T07:34:58.268Z,2.50
2023-02-11T07:37:28.922Z,2.50
2023-02-11T07:39:57.649Z,2.50
2023-02-11T07:42:25.551Z,2.50
2023-02-11T07:44:53.552Z,2.60
2023-02-11T07:47:21.334Z,2.70
2023-02-11T07:49:49.281Z,2.70
2023-02-11T07:52:18.906Z,2.60
2023-02-11T07:54:48.486Z,2.50
2023-02-11T07:57:16.256Z,2.50
2023-02-11T07:59:44.566Z,2.50
2023-02-11T08:02:12.292Z,2.50
2023-02-11T08:04:41.071Z,2.50
2023-02-11T08:07:08.704Z,2.50
2023-02-11T08:09:36.907Z,2.50
2023-02-11T08:12:04.808Z,2.50
2023-02-11T08:14:32.995Z,2.50
2023-02-11T08:17:00.644Z,2.50
2023-02-11T08:19:28.641Z,2.50
2023-02-11T08:21:57.385Z,2.50
2023-02-11T08:24:25.418Z,2.70
2023-02-11T08:26:53.107Z,2.70
2023-02-11T08:29:21.394Z,2.70
2023-02-11T08:31:49.929Z,2.70
2023-02-11T08:34:20.731Z,2.80
2023-02-11T08:36:49.219Z,2.80
2023-02-11T08:39:22.525Z,2.80
2023-02-11T08:41:53.007Z,2.80
2023-02-11T08:44:22.473Z,2.80
2023-02-11T08:46:52.075Z,2.80
2023-02-11T08:49:20.643Z,2.80
2023-02-11T08:51:48.621Z,2.80
2023-02-11T08:54:16.848Z,2.80
2023-02-11T08:56:46.067Z,2.90
2023-02-11T08:59:15.726Z,2.90
2023-02-11T09:01:44.652Z,3.00
2023-02-11T09:04:13.302Z,3.00
2023-02-11T09:06:41.147Z,3.10
2023-02-11T09:09:13.752Z,3.20
2023-02-11T09:11:43.426Z,3.30
2023-02-11T09:14:18.772Z,3.50
2023-02-11T09:16:46.630Z,3.50
2023-02-11T09:19:14.601Z,3.50
2023-02-11T09:21:42.262Z,3.60
2023-02-11T09:24:11.307Z,3.60
2023-02-11T09:26:43.480Z,3.60
2023-02-11T09:29:11.766Z,3.70
2023-02-11T09:31:39.690Z,4.00
2023-02-11T09:34:08.472Z,4.00
2023-02-11T09:36:38.931Z,4.10
2023-02-11T09:39:11.890Z,4.00
2023-02-11T09:41:47.280Z,4.00
2023-02-11T09:44:25.986Z,4.00
2023-02-11T09:47:00.770Z,4.00
2023-02-11T09:49:44.578Z,4.10
2023-02-11T09:52:28.924Z,4.10
2023-02-11T09:54:59.657Z,4.10
2023-02-11T09:57:33.241Z,4.10
2023-02-11T10:00:02.702Z,4.20
2023-02-11T10:02:57.236Z,4.20
2023-02-11T10:05:52.603Z,4.30
2023-02-11T10:08:42.254Z,4.30
2023-02-11T10:11:31.550Z,4.30
2023-02-11T10:14:18.227Z,4.30
2023-02-11T10:17:07.902Z,4.30
2023-02-11T10:20:08.474Z,4.40
2023-02-11T10:22:49.749Z,4.40
2023-02-11T10:25:22.718Z,4.50
2023-02-11T10:27:53.213Z,4.50
2023-02-11T10:30:31.181Z,4.50
2023-02-11T10:33:36.982Z,4.60
2023-02-11T10:36:05.900Z,4.70
2023-02-11T10:38:36.616Z,4.90
2023-02-11T10:41:06.925Z,4.90
2023-02-11T10:43:35.634Z,5.00
2023-02-11T10:46:06.288Z,5.00
2023-02-11T10:48:45.539Z,5.10
2023-02-11T10:51:21.787Z,5.10
2023-02-11T10:54:19.853Z,5.10
2023-02-11T10:56:58.956Z,5.10
2023-02-11T10:59:30.523Z,5.20
2023-02-11T11:02:02.243Z,5.30
2023-02-11T11:04:30.497Z,5.30
2023-02-11T11:07:23.326Z,5.50
2023-02-11T11:10:08.937Z,5.60
2023-02-11T11:12:45.902Z,5.70
2023-02-11T11:15:23.606Z,5.80
2023-02-11T11:18:24.330Z,5.90
2023-02-11T11:21:01.562Z,5.80
2023-02-11T11:23:31.064Z,5.80
2023-02-11T11:26:10.513Z,5.90
2023-02-11T11:28:58.118Z,5.90
2023-02-11T11:31:47.220Z,6.00
2023-02-11T11:34:32.693Z,6.00
2023-02-11T11:37:29.964Z,5.90
2023-02-11T11:40:28.433Z,5.90
2023-02-11T11:43:23.691Z,5.80
2023-02-11T11:45:57.542Z,5.70
2023-02-11T11:48:52.335Z,5.60
2023-02-11T11:51:20.598Z,5.60
2023-02-11T11:54:03.234Z,5.60
2023-02-11T11:56:34.776Z,5.60
2023-02-11T11:59:16.837Z,5.60
2023-02-11T12:01:53.353Z,5.60
2023-02-11T12:04:39.812Z,5.50
2023-02-11T12:07:16.807Z,5.50
2023-02-11T12:09:50.756Z,5.50
2023-02-11T12:12:40.186Z,5.50
2023-02-11T12:15:41.910Z,5.60
2023-02-11T12:18:38.464Z,5.60
2023-02-11T12:21:06.819Z,5.60
2023-02-11T12:24:06.763Z,5.60
2023-02-11T12:27:15.821Z,5.60
2023-02-11T12:30:10.918Z,5.60
2023-02-11T12:32:51.224Z,5.70
2023-02-11T12:35:51.895Z,5.70
2023-02-11T12:39:03.183Z,5.70
2023-02-11T12:42:01.461Z,5.60
2023-02-11T12:44:52.278Z,5.60
2023-02-11T12:47:49.539Z,5.60
2023-02-11T12:50:28.232Z,5.60
2023-02-11T12:53:34.346Z,5.60
2023-02-11T12:56:13.019Z,5.60
2023-02-11T12:58:45.712Z,5.60
2023-02-11T13:01:29.829Z,5.50
2023-02-11T13:04:02.604Z,5.50
2023-02-11T13:06:39.175Z,5.50
2023-02-11T13:09:16.951Z,5.50
2023-02-11T13:11:54.892Z,5.50
2023-02-11T13:14:40.034Z,5.50
2023-02-11T13:17:22.244Z,5.40
2023-02-11T13:19:57.189Z,5.40
2023-02-11T13:22:41.775Z,5.40
2023-02-11T13:25:39.349Z,5.40
2023-02-11T13:28:30.394Z,5.50
2023-02-11T13:31:03.613Z,5.50
2023-02-11T13:33:35.396Z,5.50
2023-02-11T13:36:04.798Z,5.40
2023-02-11T13:38:34.180Z,5.40
2023-02-11T13:41:17.772Z,5.30
2023-02-11T13:43:58.999Z,5.30
2023-02-11T13:46:30.233Z,5.10
2023-02-11T13:48:59.314Z,5.10
2023-02-11T13:51:42.543Z,5.10
2023-02-11T13:54:25.280Z,5.10
2023-02-11T13:57:24.596Z,5.00
2023-02-11T13:59:59.171Z,5.00
2023-02-11T14:02:48.125Z,5.00
2023-02-11T14:05:40.511Z,5.00
2023-02-11T14:08:30.113Z,4.90
2023-02-11T14:11:13.085Z,4.90
2023-02-11T14:13:53.175Z,4.90
2023-02-11T14:16:36.871Z,4.80
2023-02-11T14:19:06.921Z,4.90
2023-02-11T14:21:38.575Z,4.80
2023-02-11T14:24:07.329Z,4.80
2023-02-11T14:26:59.894Z,4.70
2023-02-11T14:29:51.367Z,4.70
2023-02-11T14:32:51.300Z,4.70
2023-02-11T14:35:31.885Z,4.70
2023-02-11T14:38:21.851Z,4.80
2023-02-11T14:41:14.271Z,4.90
2023-02-11T14:43:51.276Z,4.90
2023-02-11T14:46:22.117Z,4.90
2023-02-11T14:48:54.282Z,4.90
2023-02-11T14:51:25.307Z,4.90
2023-02-11T14:54:02.266Z,4.90
2023-02-11T14:56:33.183Z,5.00
2023-02-11T14:59:06.636Z,4.90
2023-02-11T15:01:41.527Z,4.90
2023-02-11T15:04:37.021Z,4.90
2023-02-11T15:07:08.134Z,4.90
2023-02-11T15:09:49.672Z,4.90
2023-02-11T15:12:24.967Z,4.90
2023-02-11T15:14:57.255Z,4.90
2023-02-11T15:17:30.388Z,4.90
2023-02-11T15:20:02.368Z,4.90
2023-02-11T15:22:36.816Z,4.90
2023-02-11T15:25:16.553Z,4.90
2023-02-11T15:27:48.797Z,4.90
2023-02-11T15:30:23.420Z,4.90
2023-02-11T15:33:00.019Z,4.90
2023-02-11T15:35:36.933Z,4.90
2023-02-11T15:38:30.560Z,4.90
2023-02-11T15:41:02.733Z,4.90
2023-02-11T15:43:51.393Z,4.90
2023-02-11T15:46:24.021Z,4.80
2023-02-11T15:48:57.212Z,4.90
2023-02-11T15:51:39.150Z,4.80
2023-02-11T15:54:20.590Z,4.80
2023-02-11T15:56:53.379Z,4.80
2023-02-11T15:59:31.214Z,4.80
2023-02-11T16:02:26.635Z,4.80
2023-02-11T16:04:59.534Z,4.80
2023-02-11T16:07:44.567Z,4.90
2023-02-11T16:10:25.008Z,4.80
2023-02-11T16:12:56.457Z,4.90
2023-02-11T16:15:42.869Z,4.90
2023-02-11T16:18:37.800Z,4.80
2023-02-11T16:21:17.090Z,4.90
2023-02-11T16:23:55.054Z,4.90
2023-02-11T16:26:39.930Z,4.90
2023-02-11T16:29:20.947Z,4.90
2023-02-11T16:31:51.319Z,4.90
2023-02-11T16:34:24.349Z,4.90
2023-02-11T16:36:54.028Z,4.90
2023-02-11T16:39:25.311Z,4.90
2023-02-11T16:41:56.872Z,4.90
2023-02-11T16:44:27.978Z,4.90
2023-02-11T16:47:00.560Z,4.90
2023-02-11T16:49:37.938Z,4.90
2023-02-11T16:52:15.583Z,4.90
2023-02-11T16:54:45.113Z,4.90
2023-02-11T16:57:19.319Z,4.90
2023-02-11T16:59:49.476Z,4.90
2023-02-11T17:02:24.703Z,4.90
2023-02-11T17:04:55.993Z,4.90
2023-02-11T17:07:24.813Z,4.90
2023-02-11T17:10:01.069Z,4.90
2023-02-11T17:12:31.040Z,5.00
2023-02-11T17:15:00.970Z,5.00
2023-02-11T17:17:33.229Z,5.00
2023-02-11T17:20:03.608Z,5.00
2023-02-11T17:22:32.936Z,5.00
2023-02-11T17:25:02.377Z,5.00
2023-02-11T17:27:31.361Z,5.00
2023-02-11T17:30:02.922Z,5.00
2023-02-11T17:32:32.148Z,5.00
2023-02-11T17:35:01.767Z,5.00
2023-02-11T17:37:31.611Z,5.00
2023-02-11T17:40:02.728Z,5.00
2023-02-11T17:42:32.417Z,5.00
2023-02-11T17:45:01.554Z,5.00
2023-02-11T17:47:31.872Z,5.00
2023-02-11T17:50:04.589Z,5.00
2023-02-11T17:52:33.901Z,5.00
2023-02-11T17:55:06.705Z,5.00
2023-02-11T17:57:36.109Z,5.00
2023-02-11T18:00:07.778Z,5.00
2023-02-11T18:02:43.661Z,5.00
2023-02-11T18:05:13.424Z,5.00
2023-02-11T18:07:43.595Z,5.00
2023-02-11T18:10:17.064Z,5.00
2023-02-11T18:12:47.317Z,5.00
2023-02-11T18:15:17.143Z,5.00
2023-02-11T18:17:46.534Z,5.00
2023-02-11T18:20:20.799Z,5.00
2023-02-11T18:22:52.510Z,5.10
2023-02-11T18:25:23.503Z,5.10
2023-02-11T18:27:55.659Z,5.10
2023-02-11T18:30:26.712Z,5.00
2023-02-11T18:32:58.360Z,5.00
2023-02-11T18:35:30.711Z,5.00
2023-02-11T18:38:00.783Z,5.00
2023-02-11T18:40:34.007Z,5.00
2023-02-11T18:43:05.069Z,5.00
2023-02-11T18:45:34.937Z,5.00
2023-02-11T18:48:06.126Z,5.00
2023-02-11T18:50:36.940Z,5.10
2023-02-11T18:53:09.996Z,5.10
2023-02-11T18:55:45.835Z,5.10
2023-02-11T18:58:16.685Z,5.10
2023-02-11T19:00:48.913Z,5.10
2023-02-11T19:03:18.687Z,5.10
2023-02-11T19:05:50.922Z,5.10
2023-02-11T19:08:21.155Z,5.10
2023-02-11T19:10:53.437Z,5.10
2023-02-11T19:13:22.893Z,5.10
2023-02-11T19:15:53.429Z,5.10
2023-02-11T19:18:23.110Z,5.10
2023-02-11T19:20:56.553Z,5.20
2023-02-11T19:23:26.399Z,5.20
2023-02-11T19:25:57.431Z,5.20
2023-02-11T19:28:26.972Z,5.30
2023-02-11T19:30:57.366Z,5.30
2023-02-11T19:33:26.650Z,5.30
2023-02-11T19:35:55.531Z,5.30
2023-02-11T19:38:24.808Z,5.30
2023-02-11T19:40:58.499Z,5.40
2023-02-11T19:43:28.487Z,5.40
2023-02-11T19:45:59.991Z,5.50
2023-02-11T19:48:36.189Z,5.50
2023-02-11T19:51:13.093Z,5.50
2023-02-11T19:53:43.112Z,5.50
2023-02-11T19:56:14.491Z,5.50
2023-02-11T19:58:45.635Z,5.50
2023-02-11T20:01:23.773Z,5.50
2023-02-11T20:03:54.897Z,5.50
2023-02-11T20:06:33.147Z,5.50
2023-02-11T20:09:06.780Z,5.50
2023-02-11T20:11:39.207Z,5.50
2023-02-11T20:14:09.304Z,5.50
2023-02-11T20:16:47.950Z,5.50
2023-02-11T20:19:22.197Z,5.50
2023-02-11T20:21:56.481Z,5.50
2023-02-11T20:24:27.349Z,5.50
2023-02-11T20:26:57.619Z,5.50
2023-02-11T20:29:30.197Z,5.50
2023-02-11T20:31:59.174Z,5.50
2023-02-11T20:34:28.444Z,5.50
2023-02-11T20:36:59.626Z,5.50
2023-02-11T20:39:32.894Z,5.50
2023-02-11T20:42:02.491Z,5.50
2023-02-11T20:44:33.055Z,5.50
2023-02-11T20:47:04.052Z,5.50
2023-02-11T20:49:33.147Z,5.50
2023-02-11T20:52:01.841Z,5.50
2023-02-11T20:54:33.173Z,5.50
2023-02-11T20:57:06.298Z,5.50
2023-02-11T20:59:35.691Z,5.60
2023-02-11T21:02:04.885Z,5.60
2023-02-11T21:04:33.739Z,5.60
2023-02-11T21:07:05.164Z,5.60
2023-02-11T21:09:34.911Z,5.60
2023-02-11T21:12:04.209Z,5.60
2023-02-11T21:14:33.097Z,5.60
2023-02-11T21:17:02.341Z,5.60
2023-02-11T21:19:31.220Z,5.60
2023-02-11T21:22:02.637Z,5.60
2023-02-11T21:24:31.738Z,5.60
2023-02-11T21:27:02.337Z,5.70
2023-02-11T21:29:33.977Z,5.70
2023-02-11T21:32:05.434Z,5.70
2023-02-11T21:34:34.551Z,5.70
2023-02-11T21:37:04.433Z,5.70
2023-02-11T21:39:33.256Z,5.70
2023-02-11T21:42:08.345Z,5.70
2023-02-11T21:44:37.678Z,5.80
2023-02-11T21:47:06.597Z,5.70
2023-02-11T21:49:34.813Z,5.80
2023-02-11T21:52:03.680Z,5.70
2023-02-11T21:54:34.055Z,5.70
2023-02-11T21:57:04.954Z,5.70
2023-02-11T21:59:33.838Z,5.70
2023-02-11T22:02:01.989Z,5.80
2023-02-11T22:04:30.279Z,5.80
2023-02-11T22:06:59.127Z,5.80
2023-02-11T22:09:30.470Z,5.80
2023-02-11T22:11:58.495Z,5.80
2023-02-11T22:14:30.646Z,5.80
2023-02-11T22:17:00.384Z,5.80
2023-02-11T22:19:29.890Z,5.80
2023-02-11T22:21:58.395Z,5.80
2023-02-11T22:24:26.196Z,5.80
2023-02-11T22:26:54.426Z,5.80
2023-02-11T22:29:22.499Z,5.80
2023-02-11T22:31:50.499Z,5.80
2023-02-11T22:34:18.204Z,5.80
2023-02-11T22:36:47.163Z,5.80
2023-02-11T22:39:16.753Z,5.80
2023-02-11T22:41:46.570Z,5.80
2023-02-11T22:44:16.587Z,5.80
2023-02-11T22:46:44.687Z,5.80
2023-02-11T22:49:14.905Z,5.80
2023-02-11T22:51:43.559Z,5.80
2023-02-11T22:54:15.155Z,5.80
2023-02-11T22:56:43.350Z,5.80
2023-02-11T22:59:16.160Z,5.80
2023-02-11T23:01:44.758Z,5.80
2023-02-11T23:04:14.781Z,5.90
2023-02-11T23:06:43.460Z,5.90
2023-02-11T23:09:14.763Z,5.90
2023-02-11T23:11:42.922Z,5.90
2023-02-11T23:14:12.438Z,5.90
2023-02-11T23:16:40.540Z,5.90
2023-02-11T23:19:09.565Z,5.90
2023-02-11T23:21:39.718Z,5.90
2023-02-11T23:24:15.003Z,5.90
2023-02-11T23:26:44.611Z,5.90
2023-02-11T23:29:12.897Z,5.90
2023-02-11T23:31:44.218Z,5.90
2023-02-11T23:34:17.409Z,5.90
2023-02-11T23:36:45.442Z,5.90
2023-02-11T23:39:15.909Z,5.90
2023-02-11T23:41:44.099Z,5.90
2023-02-11T23:44:12.198Z,5.90
2023-02-11T23:46:40.317Z,5.90
2023-02-11T23:49:07.972Z,5.90
2023-02-11T23:51:35.929Z,5.90
2023-02-11T23:54:03.561Z,5.90
2023-02-11T23:56:31.633Z,5.90
2023-02-11T23:58:59.678Z,5.90
